transparency-sealcitizensCharter

Gale Warning
Issued at: 05:00 AM TODAY , 24 January 2017
Gale Warning # 19
For: STRONG TO GALE FORCE WINDS ASSOCIATED WITH THE SURGE OF THE NORTHEAST MONSOON.

Gale Warning in PDF file



Weather Advisory
As of today,there is no Weather Advisory issued.


Dams Water Level Update
As of 6 AM, 24 January  2017

General Flood Advisories - Regional
Issued 24 January 2017


Daily Basin Hydrological Forecast
Issued 23 January 2017




Monthly Climate Assessment and Outlook

La Niña-like conditions continue
Issued: 05 January 2017
updates shall be issued as appropriate.

Monthly Rainfall Forecast
RAINFALL FORECAST  (February - July 2017) 
UPDATED: 18 January 2017 


Regional Rainfall Forecast
Issued: 18 January 2017
Valid for: February - July 2017
Farm Weather Forecast and Advisories
ISSUED              : 8AM, TUESDAY, JANUARY 24,2017
VALID UNTIL      :  8AM, WEDNESDAY, JANUARY 25,2017
FWFA:  N0. 17-024


Ten-Day Regional Agri-Weather Information

DECADE NO. 3  JANUARY 21- 31, 2017

PHILIPPINE AGRI-WEATHER FORECAST

TThe weather systems that will affect the country are northeast monsoon, tail-end of a cold front, and low pressure area (LPA).

During the early days of the forecast period, Visayas, Mindanao, Bicol Region, and the provinces of Aurora, Quezon and Palawan will have cloudy skies with rains and thunderstorms.  Afterwards, Bicol Region and the eastern portion of Visayas and Mindanao will experience cloudy skies with rains or thunderstorms while the northern portion of Luzon will have light rains. The LPA will bring cloudiness with rains or thunderstorms over Bicol Region, Visayas and Mindanao at the latter part of the ten-day period. The rest of the country will have partly cloudy to cloudy skies with isolated rains or thunderstorms.

Moderate to strong northeasterly winds will prevail over the whole country with moderate to rough seas.

The eastern and central equatorial Pacific is in neutral condition.


Seasonal Climate Outlook
Issued:  15 July 2016
FOR JULY TO DECEMBER 2016
PDF 




Astronomical Diary
Issued 01 January 2017
Planet Conjuction, Famous Equilateral triangle in the sky and Annual Quadrantid meteor shower...




   PAGASA webmail  Learning Tools  Bidding 

  Training Activities  Vacancy  Research-and-Development

  Engineering  faqupdate  Publications 
TAF RPLL

232300Z 2400/2506 10006KT 9999 FEW023 BKN100 TX30/2406Z TN23/2421Z TEMPO 2400/2406 10010KT 8000 –RA SCT023 OVC080 TEMPO 2406/2412 11010KT SCT022 OVC080=

TAF RPVM

232300Z 2400/2506 03008KT 9999 FEW020 BKN300 TEMPO 2400/2406 02014KT FEW020 BKN100 TEMPO 2406/2412 04012KT FEW020 SCT100 BKN250=

TAF RPLB

232300Z 2400/2424 06008KT 9999 FEW020 BKN080 TX29/2406Z TN23/2422Z TEMPO 2400/2406 08014G24KT 9000 –RA SCT018 OVC080=

TAF RPLC

232300Z 2400/2424 03006KT 9999 SCT020 BKN100 TX29/2406Z TN22/2421Z TEMPO 2400/2406 32008KT 8000 –RA SCT018 OVC090=

TAF RPLI

232300Z 2400/2424 02010KT 9999 FEW019 BKN100 TEMPO 2400/2406 02014G24KT 9000 –RA SCT019 OVC100=

TAF RPVP

232300Z 2400/2424 09010KT 9999 FEW019 SCT240 TEMPO 2400/2406 09012KT FEW019 SCT080=

TAF RPVD

232300Z 2400/2424 04008KT 9999 FEW015 SCT080 BKN220 TEMPO 2400/2406 02010KT 9000 –SHRA SCT015 OVC080=

TAF RPMR

232300Z 2400/2424 04006KT 9999 FEW018 BKN080 TEMPO 2400/2406 36008KT 8000 –SHRA SCT018 OVC080=

TAF RPMD

232300Z 2400/2424 36008KT 9999 FEW016 BKN090 TEMPO 2400/2406 03012KT 8000 –TSRA FEW015CB SCT016 OVC090=

TAF RPMZ

232300Z 2400/2424 04004KT 9999 FEW017 BKN100 TEMPO 2400/2406 08006KT 9000 –SHRA SCT017 OVC100=


RPLL FORECAST TAKE-OFF CONDITION
TIME

(UTC)

WIND

(dddffKT)

TEMP

(°C)

QNH

(hPa)

TIME

(UTC)

WIND

(dddffKT)

TEMP

(°C)

QNH

(hPa)

0000

09006KT

26.0

1016.5

0400

10010KT

29.0

1017.5

0100

09008KT

26.5

1017.0

0500

09009KT

29.5

1017.0

0200

10008KT

27.0

1017.5

0600

10009KT

30.0

1016.0

0300

10010KT

28.0

1018.0

0700

11010KT

29.5

1015.0


ISSUED AT NAIA AMSS-WD/PAGASA-DOST FOR 2300UTC 23 JANUARY 2017

PREPARED BY:                AYN                                   
 CHECKED BY:                CRSED

payong pagasa on android The latest version of the official PAGASA app can now be downloaded on Google play store

Weather Division is now  ISO 9001:2008 Certified
Proof has been furnished by means of an audit that the requirements of ISO 9001:2008 are met.

Read more ...